< < Back
Terminal Aerodrome Forecast


Current Version              Previous Versions:   1  2  3  4  5  6  7  8  9  

Terminal Aerodrome Forecast

624
FTUS42 KILM 312300
TAFILM
TAF
KILM 312323Z 0100/0124 VRB02KT P6SM BKN130
     FM011700 18009KT P6SM FEW040 BKN200=

Latest METAR

738
SAUS70 KWBC 010000 RRN
MTRILM
METAR KILM 312353Z AUTO 17004KT 10SM CLR 03/M04 A3035 RMK AO2 SLP275
T00331044 10100 20028 53009


USA.gov is the U.S. government's official web portal to all federal, state and local government web resources and services.